Sewickley, Pennsylvania
Current Conditions -  °F | °C
As of 3:51 PM on Thursday 23 Oct 2014 (Local Time) from KPIT Reporting Station
Scattered Clouds Scattered Clouds  
Wind Chill: 60°   Ceiling: Unl
Heat Index: 60°   Visibility: 10mi
Dew Point: 42°   Wind: 14mph
Humidity: 51%   Direction: 310°NW
Pressure: 30.06"   Gusts: NA
Location:  40.54°N, 80.18°W
Report Text: KPIT 231951Z 31012KT 10SM SCT040 16/06 A3006 RMK AO2 SLP188 T01560056
Loading
Personal Weather Stations






























Interactive Weather Map
Tropical Storm Tracking
New forecast layout! Learn more

10-Day Weather Forecast

Advertisements
Track Severe Weather on mobile